KUNV 181053Z 00000KT 10SM MIFG SKC 17/17 A3004